sensor_id;sensor_type;location;lat;lon;timestamp;temperature;humidity
67752;DHT22;54551;51.068;5.826;2023-05-19T00:00:17;12.00;99.90
67752;DHT22;54551;51.068;5.826;2023-05-19T00:02:44;12.00;99.90
67752;DHT22;54551;51.068;5.826;2023-05-19T00:05:13;11.90;99.90
67752;DHT22;54551;51.068;5.826;2023-05-19T00:07:43;12.00;99.90
67752;DHT22;54551;51.068;5.826;2023-05-19T00:10:11;11.90;99.90
67752;DHT22;54551;51.068;5.826;2023-05-19T00:12:37;11.90;99.90
67752;DHT22;54551;51.068;5.826;2023-05-19T00:15:04;11.90;99.90
67752;DHT22;54551;51.068;5.826;2023-05-19T00:17:31;11.80;99.90
67752;DHT22;54551;51.068;5.826;2023-05-19T00:19:58;11.80;99.90
67752;DHT22;54551;51.068;5.826;2023-05-19T00:22:24;11.80;99.90
67752;DHT22;54551;51.068;5.826;2023-05-19T00:24:50;11.80;99.90
67752;DHT22;54551;51.068;5.826;2023-05-19T00:27:16;11.70;99.90
67752;DHT22;54551;51.068;5.826;2023-05-19T00:29:42;11.70;99.90
67752;DHT22;54551;51.068;5.826;2023-05-19T00:32:08;11.70;99.90
67752;DHT22;54551;51.068;5.826;2023-05-19T00:34:34;11.60;99.90
67752;DHT22;54551;51.068;5.826;2023-05-19T00:37:00;11.40;99.90
67752;DHT22;54551;51.068;5.826;2023-05-19T00:39:26;11.40;99.90
67752;DHT22;54551;51.068;5.826;2023-05-19T00:41:52;11.30;99.90
67752;DHT22;54551;51.068;5.826;2023-05-19T00:44:18;11.20;99.90
67752;DHT22;54551;51.068;5.826;2023-05-19T00:46:44;11.20;99.90
67752;DHT22;54551;51.068;5.826;2023-05-19T00:49:10;11.10;99.90
67752;DHT22;54551;51.068;5.826;2023-05-19T00:51:36;11.10;99.90
67752;DHT22;54551;51.068;5.826;2023-05-19T00:54:02;11.10;99.90
67752;DHT22;54551;51.068;5.826;2023-05-19T00:56:28;11.00;99.90
67752;DHT22;54551;51.068;5.826;2023-05-19T00:58:54;11.00;99.90
67752;DHT22;54551;51.068;5.826;2023-05-19T01:01:21;11.00;99.90
67752;DHT22;54551;51.068;5.826;2023-05-19T01:03:48;11.10;99.90
67752;DHT22;54551;51.068;5.826;2023-05-19T01:06:14;11.00;99.90
67752;DHT22;54551;51.068;5.826;2023-05-19T01:08:44;11.00;99.90
67752;DHT22;54551;51.068;5.826;2023-05-19T01:11:11;11.00;99.90
67752;DHT22;54551;51.068;5.826;2023-05-19T01:13:36;11.00;99.90
67752;DHT22;54551;51.068;5.826;2023-05-19T01:16:28;11.00;99.90
67752;DHT22;54551;51.068;5.826;2023-05-19T01:32:44;10.90;99.90
67752;DHT22;54551;51.068;5.826;2023-05-19T01:35:11;10.80;99.90
67752;DHT22;54551;51.068;5.826;2023-05-19T01:37:40;10.80;99.90
67752;DHT22;54551;51.068;5.826;2023-05-19T01:40:09;10.80;99.90
67752;DHT22;54551;51.068;5.826;2023-05-19T01:42:36;10.80;99.90
67752;DHT22;54551;51.068;5.826;2023-05-19T01:45:05;10.70;99.90
67752;DHT22;54551;51.068;5.826;2023-05-19T01:47:35;10.70;99.90
67752;DHT22;54551;51.068;5.826;2023-05-19T01:50:05;10.70;99.90
67752;DHT22;54551;51.068;5.826;2023-05-19T01:52:31;10.60;99.90
67752;DHT22;54551;51.068;5.826;2023-05-19T01:54:57;10.50;99.90
67752;DHT22;54551;51.068;5.826;2023-05-19T01:57:37;10.50;99.90
67752;DHT22;54551;51.068;5.826;2023-05-19T02:05:50;10.50;99.90
67752;DHT22;54551;51.068;5.826;2023-05-19T02:08:53;10.40;99.90
67752;DHT22;54551;51.068;5.826;2023-05-19T02:11:25;10.40;99.90
67752;DHT22;54551;51.068;5.826;2023-05-19T02:13:55;10.40;99.90
67752;DHT22;54551;51.068;5.826;2023-05-19T02:16:26;10.40;99.90
67752;DHT22;54551;51.068;5.826;2023-05-19T02:18:52;10.30;99.90
67752;DHT22;54551;51.068;5.826;2023-05-19T02:21:18;10.30;99.90
67752;DHT22;54551;51.068;5.826;2023-05-19T02:23:45;10.30;99.90
67752;DHT22;54551;51.068;5.826;2023-05-19T02:26:11;10.30;99.90
67752;DHT22;54551;51.068;5.826;2023-05-19T02:28:38;10.20;99.90
67752;DHT22;54551;51.068;5.826;2023-05-19T02:31:03;10.20;99.90
67752;DHT22;54551;51.068;5.826;2023-05-19T02:33:33;10.20;99.90
67752;DHT22;54551;51.068;5.826;2023-05-19T02:36:01;10.10;99.90
67752;DHT22;54551;51.068;5.826;2023-05-19T02:38:27;10.10;99.90
67752;DHT22;54551;51.068;5.826;2023-05-19T02:40:53;10.10;99.90
67752;DHT22;54551;51.068;5.826;2023-05-19T02:43:19;10.10;99.90
67752;DHT22;54551;51.068;5.826;2023-05-19T02:45:45;10.10;99.90
67752;DHT22;54551;51.068;5.826;2023-05-19T02:48:11;10.10;99.90
67752;DHT22;54551;51.068;5.826;2023-05-19T02:50:37;10.10;99.90
67752;DHT22;54551;51.068;5.826;2023-05-19T02:53:03;10.00;99.90
67752;DHT22;54551;51.068;5.826;2023-05-19T02:55:29;10.00;99.90
67752;DHT22;54551;51.068;5.826;2023-05-19T02:57:54;10.00;99.90
67752;DHT22;54551;51.068;5.826;2023-05-19T03:00:20;10.00;99.90
67752;DHT22;54551;51.068;5.826;2023-05-19T03:02:46;10.00;99.90
67752;DHT22;54551;51.068;5.826;2023-05-19T03:05:13;9.90;99.90
67752;DHT22;54551;51.068;5.826;2023-05-19T03:07:39;9.90;99.90
67752;DHT22;54551;51.068;5.826;2023-05-19T03:10:05;10.00;99.90
67752;DHT22;54551;51.068;5.826;2023-05-19T03:12:32;10.00;99.90
67752;DHT22;54551;51.068;5.826;2023-05-19T03:14:59;10.00;99.90
67752;DHT22;54551;51.068;5.826;2023-05-19T03:17:25;10.00;99.90
67752;DHT22;54551;51.068;5.826;2023-05-19T03:19:53;10.00;99.90
67752;DHT22;54551;51.068;5.826;2023-05-19T03:22:18;10.00;99.90
67752;DHT22;54551;51.068;5.826;2023-05-19T03:24:45;9.90;99.90
67752;DHT22;54551;51.068;5.826;2023-05-19T03:27:12;9.90;99.90
67752;DHT22;54551;51.068;5.826;2023-05-19T03:29:38;9.90;99.90
67752;DHT22;54551;51.068;5.826;2023-05-19T03:32:04;9.80;99.90
67752;DHT22;54551;51.068;5.826;2023-05-19T03:34:30;9.80;99.90
67752;DHT22;54551;51.068;5.826;2023-05-19T03:36:57;9.70;99.90
67752;DHT22;54551;51.068;5.826;2023-05-19T03:39:23;9.70;99.90
67752;DHT22;54551;51.068;5.826;2023-05-19T03:41:50;9.70;99.90
67752;DHT22;54551;51.068;5.826;2023-05-19T03:44:16;9.70;99.90
67752;DHT22;54551;51.068;5.826;2023-05-19T03:46:42;9.70;99.90
67752;DHT22;54551;51.068;5.826;2023-05-19T03:49:40;9.70;99.90
67752;DHT22;54551;51.068;5.826;2023-05-19T03:52:28;9.70;99.90
67752;DHT22;54551;51.068;5.826;2023-05-19T03:55:03;9.60;99.90
67752;DHT22;54551;51.068;5.826;2023-05-19T03:57:29;9.60;99.90
67752;DHT22;54551;51.068;5.826;2023-05-19T03:59:55;9.60;99.90
67752;DHT22;54551;51.068;5.826;2023-05-19T04:02:20;9.60;99.90
67752;DHT22;54551;51.068;5.826;2023-05-19T04:04:47;9.60;99.90
67752;DHT22;54551;51.068;5.826;2023-05-19T04:07:13;9.50;99.90
67752;DHT22;54551;51.068;5.826;2023-05-19T04:09:41;9.50;99.90
67752;DHT22;54551;51.068;5.826;2023-05-19T04:12:07;9.60;99.90
67752;DHT22;54551;51.068;5.826;2023-05-19T04:14:33;9.60;99.90
67752;DHT22;54551;51.068;5.826;2023-05-19T04:16:59;9.70;99.90
67752;DHT22;54551;51.068;5.826;2023-05-19T04:19:26;9.80;99.90
67752;DHT22;54551;51.068;5.826;2023-05-19T04:21:54;10.00;99.90
67752;DHT22;54551;51.068;5.826;2023-05-19T04:24:20;10.10;99.90
67752;DHT22;54551;51.068;5.826;2023-05-19T04:26:46;10.20;99.90
67752;DHT22;54551;51.068;5.826;2023-05-19T04:29:14;10.30;99.90
67752;DHT22;54551;51.068;5.826;2023-05-19T04:31:43;10.40;99.90
67752;DHT22;54551;51.068;5.826;2023-05-19T04:34:09;10.50;99.90
67752;DHT22;54551;51.068;5.826;2023-05-19T04:36:36;10.60;99.90
67752;DHT22;54551;51.068;5.826;2023-05-19T04:39:02;10.70;99.90
67752;DHT22;54551;51.068;5.826;2023-05-19T04:41:32;10.70;99.90
67752;DHT22;54551;51.068;5.826;2023-05-19T04:44:00;10.80;99.90
67752;DHT22;54551;51.068;5.826;2023-05-19T04:46:27;10.80;99.90
67752;DHT22;54551;51.068;5.826;2023-05-19T04:48:54;10.80;99.90
67752;DHT22;54551;51.068;5.826;2023-05-19T04:51:22;10.80;99.90
67752;DHT22;54551;51.068;5.826;2023-05-19T04:53:56;10.80;99.90
67752;DHT22;54551;51.068;5.826;2023-05-19T04:56:22;10.70;99.90
67752;DHT22;54551;51.068;5.826;2023-05-19T04:58:49;10.70;99.90
67752;DHT22;54551;51.068;5.826;2023-05-19T05:01:15;10.60;99.90
67752;DHT22;54551;51.068;5.826;2023-05-19T05:03:42;10.60;99.90
67752;DHT22;54551;51.068;5.826;2023-05-19T05:06:09;10.70;99.90
67752;DHT22;54551;51.068;5.826;2023-05-19T05:08:36;10.90;99.90
67752;DHT22;54551;51.068;5.826;2023-05-19T05:11:05;11.10;99.90
67752;DHT22;54551;51.068;5.826;2023-05-19T05:13:31;11.30;99.90
67752;DHT22;54551;51.068;5.826;2023-05-19T05:15:57;11.40;99.90
67752;DHT22;54551;51.068;5.826;2023-05-19T05:18:24;11.30;99.90
67752;DHT22;54551;51.068;5.826;2023-05-19T05:20:52;11.30;99.90
67752;DHT22;54551;51.068;5.826;2023-05-19T05:23:18;11.30;99.90
67752;DHT22;54551;51.068;5.826;2023-05-19T05:25:46;11.30;99.90
67752;DHT22;54551;51.068;5.826;2023-05-19T05:28:14;11.20;99.90
67752;DHT22;54551;51.068;5.826;2023-05-19T05:30:40;11.10;99.90
67752;DHT22;54551;51.068;5.826;2023-05-19T05:33:08;11.00;99.90
67752;DHT22;54551;51.068;5.826;2023-05-19T05:35:37;11.00;99.90
67752;DHT22;54551;51.068;5.826;2023-05-19T05:38:04;11.00;99.90
67752;DHT22;54551;51.068;5.826;2023-05-19T05:40:31;11.00;99.90
67752;DHT22;54551;51.068;5.826;2023-05-19T05:42:57;11.10;99.90
67752;DHT22;54551;51.068;5.826;2023-05-19T05:45:28;11.10;99.90
67752;DHT22;54551;51.068;5.826;2023-05-19T05:47:54;11.20;99.90
67752;DHT22;54551;51.068;5.826;2023-05-19T05:50:21;11.20;99.90
67752;DHT22;54551;51.068;5.826;2023-05-19T05:52:47;11.20;99.90
67752;DHT22;54551;51.068;5.826;2023-05-19T05:55:15;11.10;99.90
67752;DHT22;54551;51.068;5.826;2023-05-19T05:57:46;11.10;99.90
67752;DHT22;54551;51.068;5.826;2023-05-19T06:00:14;11.20;99.90
67752;DHT22;54551;51.068;5.826;2023-05-19T06:02:50;11.20;99.90
67752;DHT22;54551;51.068;5.826;2023-05-19T06:05:17;11.40;99.90
67752;DHT22;54551;51.068;5.826;2023-05-19T06:07:45;11.30;99.90
67752;DHT22;54551;51.068;5.826;2023-05-19T06:10:14;11.20;99.90
67752;DHT22;54551;51.068;5.826;2023-05-19T06:12:41;11.40;99.90
67752;DHT22;54551;51.068;5.826;2023-05-19T06:15:09;11.60;99.90
67752;DHT22;54551;51.068;5.826;2023-05-19T06:17:46;11.70;99.90
67752;DHT22;54551;51.068;5.826;2023-05-19T06:20:13;11.70;99.90
67752;DHT22;54551;51.068;5.826;2023-05-19T06:22:39;11.80;99.90
67752;DHT22;54551;51.068;5.826;2023-05-19T06:25:06;11.90;99.90
67752;DHT22;54551;51.068;5.826;2023-05-19T06:27:34;11.90;99.90
67752;DHT22;54551;51.068;5.826;2023-05-19T06:30:00;12.00;99.90
67752;DHT22;54551;51.068;5.826;2023-05-19T06:32:30;12.20;99.90
67752;DHT22;54551;51.068;5.826;2023-05-19T06:34:57;12.30;99.90
67752;DHT22;54551;51.068;5.826;2023-05-19T06:37:24;12.40;99.90
67752;DHT22;54551;51.068;5.826;2023-05-19T06:39:53;12.50;99.90
67752;DHT22;54551;51.068;5.826;2023-05-19T06:42:19;12.70;99.90
67752;DHT22;54551;51.068;5.826;2023-05-19T06:45:13;12.90;99.90
67752;DHT22;54551;51.068;5.826;2023-05-19T06:47:40;12.90;99.90
67752;DHT22;54551;51.068;5.826;2023-05-19T06:50:09;12.90;99.90
67752;DHT22;54551;51.068;5.826;2023-05-19T06:52:36;13.10;99.90
67752;DHT22;54551;51.068;5.826;2023-05-19T06:55:03;13.60;99.90
67752;DHT22;54551;51.068;5.826;2023-05-19T06:57:31;14.20;99.90
67752;DHT22;54551;51.068;5.826;2023-05-19T06:59:56;14.70;99.90
67752;DHT22;54551;51.068;5.826;2023-05-19T07:02:23;15.00;99.90
67752;DHT22;54551;51.068;5.826;2023-05-19T07:04:49;15.40;99.90
67752;DHT22;54551;51.068;5.826;2023-05-19T07:07:17;15.80;99.90
67752;DHT22;54551;51.068;5.826;2023-05-19T07:09:43;16.40;99.90
67752;DHT22;54551;51.068;5.826;2023-05-19T07:12:09;16.70;99.90
67752;DHT22;54551;51.068;5.826;2023-05-19T07:14:36;16.90;99.90
67752;DHT22;54551;51.068;5.826;2023-05-19T07:17:03;17.10;99.90
67752;DHT22;54551;51.068;5.826;2023-05-19T07:19:30;17.00;99.90
67752;DHT22;54551;51.068;5.826;2023-05-19T07:21:57;17.10;99.90
67752;DHT22;54551;51.068;5.826;2023-05-19T07:24:24;17.00;99.90
67752;DHT22;54551;51.068;5.826;2023-05-19T07:26:52;17.00;99.90
67752;DHT22;54551;51.068;5.826;2023-05-19T07:29:18;17.20;99.90
67752;DHT22;54551;51.068;5.826;2023-05-19T07:31:44;17.20;99.90
67752;DHT22;54551;51.068;5.826;2023-05-19T07:34:11;17.70;99.90
67752;DHT22;54551;51.068;5.826;2023-05-19T07:36:37;18.50;99.90
67752;DHT22;54551;51.068;5.826;2023-05-19T07:39:03;19.80;99.90
67752;DHT22;54551;51.068;5.826;2023-05-19T07:41:28;20.90;99.90
67752;DHT22;54551;51.068;5.826;2023-05-19T07:43:54;21.30;99.90
67752;DHT22;54551;51.068;5.826;2023-05-19T07:46:20;21.30;99.90
67752;DHT22;54551;51.068;5.826;2023-05-19T07:48:46;20.60;99.90
67752;DHT22;54551;51.068;5.826;2023-05-19T07:51:12;20.30;99.90
67752;DHT22;54551;51.068;5.826;2023-05-19T07:53:39;19.90;99.90
67752;DHT22;54551;51.068;5.826;2023-05-19T07:56:05;19.10;99.90
67752;DHT22;54551;51.068;5.826;2023-05-19T07:58:31;19.50;99.90
67752;DHT22;54551;51.068;5.826;2023-05-19T08:00:57;19.80;99.90
67752;DHT22;54551;51.068;5.826;2023-05-19T08:03:24;19.90;99.90
67752;DHT22;54551;51.068;5.826;2023-05-19T08:05:50;20.20;99.90
67752;DHT22;54551;51.068;5.826;2023-05-19T08:08:15;20.50;99.90
67752;DHT22;54551;51.068;5.826;2023-05-19T08:10:42;20.20;99.90
67752;DHT22;54551;51.068;5.826;2023-05-19T08:13:08;20.40;99.90
67752;DHT22;54551;51.068;5.826;2023-05-19T08:15:33;19.90;99.90
67752;DHT22;54551;51.068;5.826;2023-05-19T08:17:59;19.10;99.90
67752;DHT22;54551;51.068;5.826;2023-05-19T08:20:26;18.90;99.90
67752;DHT22;54551;51.068;5.826;2023-05-19T08:22:52;18.70;99.90
67752;DHT22;54551;51.068;5.826;2023-05-19T08:25:18;19.20;99.90
67752;DHT22;54551;51.068;5.826;2023-05-19T08:27:44;18.90;99.90
67752;DHT22;54551;51.068;5.826;2023-05-19T08:30:11;19.40;99.90
67752;DHT22;54551;51.068;5.826;2023-05-19T08:32:37;20.10;99.90
67752;DHT22;54551;51.068;5.826;2023-05-19T08:35:03;20.80;99.90
67752;DHT22;54551;51.068;5.826;2023-05-19T08:37:29;21.10;99.90
67752;DHT22;54551;51.068;5.826;2023-05-19T08:39:55;21.50;99.90
67752;DHT22;54551;51.068;5.826;2023-05-19T08:42:22;21.60;99.90
67752;DHT22;54551;51.068;5.826;2023-05-19T08:44:48;22.10;99.90
67752;DHT22;54551;51.068;5.826;2023-05-19T08:47:14;22.30;99.90
67752;DHT22;54551;51.068;5.826;2023-05-19T08:49:43;22.70;99.90
67752;DHT22;54551;51.068;5.826;2023-05-19T08:52:34;23.00;99.90
67752;DHT22;54551;51.068;5.826;2023-05-19T08:55:18;23.00;99.90
67752;DHT22;54551;51.068;5.826;2023-05-19T08:57:48;22.50;99.90
67752;DHT22;54551;51.068;5.826;2023-05-19T09:00:15;22.90;99.90
67752;DHT22;54551;51.068;5.826;2023-05-19T09:02:43;23.80;99.90
67752;DHT22;54551;51.068;5.826;2023-05-19T09:05:09;24.50;99.90
67752;DHT22;54551;51.068;5.826;2023-05-19T09:07:35;25.20;97.20
67752;DHT22;54551;51.068;5.826;2023-05-19T09:10:03;24.90;97.60
67752;DHT22;54551;51.068;5.826;2023-05-19T09:12:29;25.10;97.50
67752;DHT22;54551;51.068;5.826;2023-05-19T09:14:56;24.70;97.60
67752;DHT22;54551;51.068;5.826;2023-05-19T09:17:22;24.10;97.00
67752;DHT22;54551;51.068;5.826;2023-05-19T09:19:48;23.60;98.00
67752;DHT22;54551;51.068;5.826;2023-05-19T09:22:17;23.60;96.60
67752;DHT22;54551;51.068;5.826;2023-05-19T09:24:46;23.90;96.20
67752;DHT22;54551;51.068;5.826;2023-05-19T09:27:20;23.20;96.20
67752;DHT22;54551;51.068;5.826;2023-05-19T09:29:48;23.90;95.70
67752;DHT22;54551;51.068;5.826;2023-05-19T09:32:23;24.00;94.20
67752;DHT22;54551;51.068;5.826;2023-05-19T09:34:49;24.50;95.70
67752;DHT22;54551;51.068;5.826;2023-05-19T09:37:15;24.20;94.50
67752;DHT22;54551;51.068;5.826;2023-05-19T09:39:43;25.30;94.10
67752;DHT22;54551;51.068;5.826;2023-05-19T09:42:13;25.20;92.70
67752;DHT22;54551;51.068;5.826;2023-05-19T09:44:40;22.70;94.00
67752;DHT22;54551;51.068;5.826;2023-05-19T09:47:08;22.30;94.70
67752;DHT22;54551;51.068;5.826;2023-05-19T09:49:34;21.80;94.10
67752;DHT22;54551;51.068;5.826;2023-05-19T09:52:02;21.70;95.20
67752;DHT22;54551;51.068;5.826;2023-05-19T09:54:29;22.00;94.90
67752;DHT22;54551;51.068;5.826;2023-05-19T09:57:03;22.00;96.60
67752;DHT22;54551;51.068;5.826;2023-05-19T09:59:30;21.90;95.70
67752;DHT22;54551;51.068;5.826;2023-05-19T10:01:57;21.60;95.90
67752;DHT22;54551;51.068;5.826;2023-05-19T10:04:28;22.20;95.10
67752;DHT22;54551;51.068;5.826;2023-05-19T10:06:56;21.70;95.60
67752;DHT22;54551;51.068;5.826;2023-05-19T10:09:27;22.80;94.60
67752;DHT22;54551;51.068;5.826;2023-05-19T10:11:55;22.80;95.10
67752;DHT22;54551;51.068;5.826;2023-05-19T10:14:25;22.20;95.10
67752;DHT22;54551;51.068;5.826;2023-05-19T10:16:53;22.00;94.30
67752;DHT22;54551;51.068;5.826;2023-05-19T10:19:22;22.60;93.70
67752;DHT22;54551;51.068;5.826;2023-05-19T10:21:48;22.00;93.60
67752;DHT22;54551;51.068;5.826;2023-05-19T10:24:16;22.10;93.80
67752;DHT22;54551;51.068;5.826;2023-05-19T10:26:45;21.80;93.10
67752;DHT22;54551;51.068;5.826;2023-05-19T10:29:16;22.00;95.20
67752;DHT22;54551;51.068;5.826;2023-05-19T10:31:44;22.80;93.90
67752;DHT22;54551;51.068;5.826;2023-05-19T10:34:35;24.10;92.70
67752;DHT22;54551;51.068;5.826;2023-05-19T10:37:40;24.40;91.10
67752;DHT22;54551;51.068;5.826;2023-05-19T10:40:11;23.10;90.70
67752;DHT22;54551;51.068;5.826;2023-05-19T10:43:01;24.40;89.60
67752;DHT22;54551;51.068;5.826;2023-05-19T10:45:38;22.90;90.70
67752;DHT22;54551;51.068;5.826;2023-05-19T10:48:10;22.20;90.90
67752;DHT22;54551;51.068;5.826;2023-05-19T10:50:38;22.40;90.40
67752;DHT22;54551;51.068;5.826;2023-05-19T10:53:04;21.90;91.20
67752;DHT22;54551;51.068;5.826;2023-05-19T10:58:12;24.40;90.10
67752;DHT22;54551;51.068;5.826;2023-05-19T11:00:38;24.40;87.70
67752;DHT22;54551;51.068;5.826;2023-05-19T11:03:16;23.20;86.20
67752;DHT22;54551;51.068;5.826;2023-05-19T11:05:43;22.60;90.00
67752;DHT22;54551;51.068;5.826;2023-05-19T11:08:15;23.20;88.80
67752;DHT22;54551;51.068;5.826;2023-05-19T11:10:45;23.60;87.80
67752;DHT22;54551;51.068;5.826;2023-05-19T11:13:18;24.10;86.10
67752;DHT22;54551;51.068;5.826;2023-05-19T11:15:46;24.90;86.40
67752;DHT22;54551;51.068;5.826;2023-05-19T11:18:13;24.30;85.90
67752;DHT22;54551;51.068;5.826;2023-05-19T11:20:41;24.80;85.10
67752;DHT22;54551;51.068;5.826;2023-05-19T11:23:13;24.50;86.00
67752;DHT22;54551;51.068;5.826;2023-05-19T11:25:50;24.30;83.10
67752;DHT22;54551;51.068;5.826;2023-05-19T11:28:22;24.90;81.70
67752;DHT22;54551;51.068;5.826;2023-05-19T11:30:54;25.20;81.50
67752;DHT22;54551;51.068;5.826;2023-05-19T11:33:27;25.50;83.00
67752;DHT22;54551;51.068;5.826;2023-05-19T11:35:55;25.90;80.40
67752;DHT22;54551;51.068;5.826;2023-05-19T11:38:25;26.10;82.30
67752;DHT22;54551;51.068;5.826;2023-05-19T11:40:52;25.80;80.20
67752;DHT22;54551;51.068;5.826;2023-05-19T11:43:18;23.60;83.30
67752;DHT22;54551;51.068;5.826;2023-05-19T11:45:44;24.10;82.10
67752;DHT22;54551;51.068;5.826;2023-05-19T11:48:11;24.40;81.20
67752;DHT22;54551;51.068;5.826;2023-05-19T11:50:40;25.00;81.80
67752;DHT22;54551;51.068;5.826;2023-05-19T11:53:06;25.70;80.10
67752;DHT22;54551;51.068;5.826;2023-05-19T11:55:32;25.00;78.40
67752;DHT22;54551;51.068;5.826;2023-05-19T11:57:59;24.70;80.10
67752;DHT22;54551;51.068;5.826;2023-05-19T12:00:26;24.70;81.10
67752;DHT22;54551;51.068;5.826;2023-05-19T12:02:52;24.90;78.20
67752;DHT22;54551;51.068;5.826;2023-05-19T12:05:25;23.90;79.80
67752;DHT22;54551;51.068;5.826;2023-05-19T12:07:52;23.60;84.00
67752;DHT22;54551;51.068;5.826;2023-05-19T12:10:26;23.60;82.70
67752;DHT22;54551;51.068;5.826;2023-05-19T12:12:55;24.10;81.80
67752;DHT22;54551;51.068;5.826;2023-05-19T12:15:23;24.20;82.30
67752;DHT22;54551;51.068;5.826;2023-05-19T12:17:56;24.00;84.70
67752;DHT22;54551;51.068;5.826;2023-05-19T12:20:24;23.30;83.30
67752;DHT22;54551;51.068;5.826;2023-05-19T12:22:50;24.10;78.50
67752;DHT22;54551;51.068;5.826;2023-05-19T12:25:17;24.60;79.60
67752;DHT22;54551;51.068;5.826;2023-05-19T12:27:43;25.00;78.90
67752;DHT22;54551;51.068;5.826;2023-05-19T12:30:10;25.10;79.80
67752;DHT22;54551;51.068;5.826;2023-05-19T12:32:37;25.00;81.50
67752;DHT22;54551;51.068;5.826;2023-05-19T12:35:04;25.10;81.10
67752;DHT22;54551;51.068;5.826;2023-05-19T12:37:34;25.20;77.60
67752;DHT22;54551;51.068;5.826;2023-05-19T12:40:02;25.30;76.70
67752;DHT22;54551;51.068;5.826;2023-05-19T12:42:29;25.30;80.60
67752;DHT22;54551;51.068;5.826;2023-05-19T12:45:01;24.90;82.40
67752;DHT22;54551;51.068;5.826;2023-05-19T12:47:34;23.80;81.30
67752;DHT22;54551;51.068;5.826;2023-05-19T12:52:27;23.50;83.20
67752;DHT22;54551;51.068;5.826;2023-05-19T12:55:13;24.00;81.90
67752;DHT22;54551;51.068;5.826;2023-05-19T12:57:40;24.70;84.00
67752;DHT22;54551;51.068;5.826;2023-05-19T13:00:12;23.90;82.60
67752;DHT22;54551;51.068;5.826;2023-05-19T13:02:59;24.30;81.10
67752;DHT22;54551;51.068;5.826;2023-05-19T13:05:27;24.20;80.00
67752;DHT22;54551;51.068;5.826;2023-05-19T13:10:20;24.00;79.10
67752;DHT22;54551;51.068;5.826;2023-05-19T13:12:46;24.40;78.40
67752;DHT22;54551;51.068;5.826;2023-05-19T13:15:11;24.40;79.10
67752;DHT22;54551;51.068;5.826;2023-05-19T13:17:37;24.80;79.10
67752;DHT22;54551;51.068;5.826;2023-05-19T13:20:04;23.60;80.30
67752;DHT22;54551;51.068;5.826;2023-05-19T13:22:31;23.20;80.70
67752;DHT22;54551;51.068;5.826;2023-05-19T13:24:57;23.80;79.70
67752;DHT22;54551;51.068;5.826;2023-05-19T13:27:24;23.90;82.40
67752;DHT22;54551;51.068;5.826;2023-05-19T13:29:51;23.70;81.90
67752;DHT22;54551;51.068;5.826;2023-05-19T13:32:17;24.30;81.40
67752;DHT22;54551;51.068;5.826;2023-05-19T13:34:43;24.50;77.60
67752;DHT22;54551;51.068;5.826;2023-05-19T13:37:08;24.40;79.40
67752;DHT22;54551;51.068;5.826;2023-05-19T13:39:36;22.60;83.20
67752;DHT22;54551;51.068;5.826;2023-05-19T13:42:02;22.60;81.40
67752;DHT22;54551;51.068;5.826;2023-05-19T13:44:29;23.00;80.70
67752;DHT22;54551;51.068;5.826;2023-05-19T13:46:55;23.60;81.70
67752;DHT22;54551;51.068;5.826;2023-05-19T13:49:21;23.10;83.90
67752;DHT22;54551;51.068;5.826;2023-05-19T13:51:47;22.30;80.60
67752;DHT22;54551;51.068;5.826;2023-05-19T13:54:13;21.50;81.60
67752;DHT22;54551;51.068;5.826;2023-05-19T13:56:39;21.50;85.90
67752;DHT22;54551;51.068;5.826;2023-05-19T13:59:05;21.90;85.30
67752;DHT22;54551;51.068;5.826;2023-05-19T14:01:31;22.60;82.80
67752;DHT22;54551;51.068;5.826;2023-05-19T14:03:57;22.80;83.90
67752;DHT22;54551;51.068;5.826;2023-05-19T14:06:23;22.70;85.60
67752;DHT22;54551;51.068;5.826;2023-05-19T14:08:49;22.50;86.30
67752;DHT22;54551;51.068;5.826;2023-05-19T14:11:19;22.50;83.00
67752;DHT22;54551;51.068;5.826;2023-05-19T14:13:49;22.20;82.80
67752;DHT22;54551;51.068;5.826;2023-05-19T14:16:16;22.10;85.90
67752;DHT22;54551;51.068;5.826;2023-05-19T14:18:42;22.10;87.10
67752;DHT22;54551;51.068;5.826;2023-05-19T14:21:08;22.30;84.90
67752;DHT22;54551;51.068;5.826;2023-05-19T14:23:34;21.90;86.40
67752;DHT22;54551;51.068;5.826;2023-05-19T14:26:00;21.80;88.70
67752;DHT22;54551;51.068;5.826;2023-05-19T14:28:25;21.90;87.40
67752;DHT22;54551;51.068;5.826;2023-05-19T14:30:54;21.70;85.90
67752;DHT22;54551;51.068;5.826;2023-05-19T14:33:23;21.90;86.80
67752;DHT22;54551;51.068;5.826;2023-05-19T14:35:49;21.70;87.10
67752;DHT22;54551;51.068;5.826;2023-05-19T14:38:15;21.80;88.20
67752;DHT22;54551;51.068;5.826;2023-05-19T14:40:41;21.50;88.60
67752;DHT22;54551;51.068;5.826;2023-05-19T14:43:09;21.50;88.80
67752;DHT22;54551;51.068;5.826;2023-05-19T14:45:35;21.70;87.70
67752;DHT22;54551;51.068;5.826;2023-05-19T14:48:01;21.80;87.00
67752;DHT22;54551;51.068;5.826;2023-05-19T14:50:27;21.60;87.30
67752;DHT22;54551;51.068;5.826;2023-05-19T14:52:53;21.10;89.60
67752;DHT22;54551;51.068;5.826;2023-05-19T14:55:19;21.10;88.80
67752;DHT22;54551;51.068;5.826;2023-05-19T14:57:45;21.30;87.50
67752;DHT22;54551;51.068;5.826;2023-05-19T15:00:11;21.50;87.60
67752;DHT22;54551;51.068;5.826;2023-05-19T15:02:37;21.50;88.20
67752;DHT22;54551;51.068;5.826;2023-05-19T15:05:03;21.70;87.40
67752;DHT22;54551;51.068;5.826;2023-05-19T15:07:29;21.70;88.10
67752;DHT22;54551;51.068;5.826;2023-05-19T15:09:55;21.60;87.30
67752;DHT22;54551;51.068;5.826;2023-05-19T15:12:21;21.10;90.60
67752;DHT22;54551;51.068;5.826;2023-05-19T15:14:47;20.80;87.30
67752;DHT22;54551;51.068;5.826;2023-05-19T15:17:13;20.60;88.90
67752;DHT22;54551;51.068;5.826;2023-05-19T15:19:39;20.40;89.10
67752;DHT22;54551;51.068;5.826;2023-05-19T15:22:07;20.40;90.40
67752;DHT22;54551;51.068;5.826;2023-05-19T15:24:33;20.80;88.20
67752;DHT22;54551;51.068;5.826;2023-05-19T15:27:00;20.40;88.40
67752;DHT22;54551;51.068;5.826;2023-05-19T15:29:27;20.40;88.80
67752;DHT22;54551;51.068;5.826;2023-05-19T15:31:53;20.50;89.00
67752;DHT22;54551;51.068;5.826;2023-05-19T15:34:19;20.80;90.60
67752;DHT22;54551;51.068;5.826;2023-05-19T15:36:48;20.80;88.40
67752;DHT22;54551;51.068;5.826;2023-05-19T15:39:14;20.70;88.50
67752;DHT22;54551;51.068;5.826;2023-05-19T15:41:40;20.60;87.40
67752;DHT22;54551;51.068;5.826;2023-05-19T15:44:06;20.80;90.90
67752;DHT22;54551;51.068;5.826;2023-05-19T15:46:32;20.50;89.50
67752;DHT22;54551;51.068;5.826;2023-05-19T15:49:00;20.60;89.50
67752;DHT22;54551;51.068;5.826;2023-05-19T15:51:27;21.00;90.10
67752;DHT22;54551;51.068;5.826;2023-05-19T15:53:53;21.10;90.10
67752;DHT22;54551;51.068;5.826;2023-05-19T15:56:18;21.20;90.20
67752;DHT22;54551;51.068;5.826;2023-05-19T15:58:46;21.10;91.00
67752;DHT22;54551;51.068;5.826;2023-05-19T16:01:12;21.00;88.20
67752;DHT22;54551;51.068;5.826;2023-05-19T16:03:39;20.70;90.00